EW9216 Weather Reports


time (UTC)temp
C
wind
direction
speed
KPH
gust
KPH
rain 1hr
cm
rain 24hr
cm
rain mn
cm
humidity
%
barometer
mb
20200229101604 12 53 8.0 14.5 0.00 0.00 0.00 44 1015.1
20200229100128 12 23 6.4 17.7 0.00 0.00 0.00 41 1015.3
20200229094622 13 16 11.3 17.7 0.00 0.00 0.00 38 1015.2
20200229093116 15 20 6.4 12.9 0.00 0.00 0.00 36 1015.6
20200229091540 15 23 6.4 14.5 0.00 0.00 0.00 34 1015.8
20200229090055 16 40 8.0 14.5 0.00 0.00 0.00 34 1016.1
20200229084523 16 60 9.7 16.1 0.00 0.00 0.00 33 1016.2
20200229083023 16 30 8.0 14.5 0.00 0.00 0.00 33 1016.4
20200229081531 14 33 4.8 12.9 0.00 0.00 0.00 40 1016.6
20200229080019 13 33 3.2 6.4 0.00 0.00 0.00 46 1016.7
20200229074512 12 20 1.6 6.4 0.00 0.00 0.00 49 1016.9
20200229073033 12 18 0.0 4.8 0.00 0.00 0.00 50 1017.0
20200229071515 13 17 1.6 6.4 0.00 0.00 0.00 49 1017.0
20200229070002 14 14 1.6 4.8 0.00 0.00 0.00 47 1017.2
20200229064754 14 13 3.2 6.4 0.00 0.00 0.00 47 1017.3
20200229061651 15 9 0.0 1.6 0.00 0.00 0.00 45 1017.4
20200229060214 16 9 0.0 0.0 0.00 0.00 0.00 43 1017.4
20200229054717 17 9 0.0 4.8 0.00 0.00 0.00 41 1017.2
20200229053126 17 9 3.2 6.4 0.00 0.00 0.00 41 1017.0
20200229051650 18 12 1.6 4.8 0.00 0.00 0.00 37 1017.1
20200229050209 20 288 0.0 8.0 0.00 0.00 0.00 34 1017.2
20200229044731 20 233 4.8 11.3 0.00 0.00 0.00 36 1017.2
20200229043200 20 250 3.2 11.3 0.00 0.00 0.00 36 1017.1
20200229041626 21 266 6.4 14.5 0.00 0.00 0.00 33 1017.1
20200229040128 21 267 9.7 19.3 0.00 0.00 0.00 32 1016.9
20200229034556 21 259 0.0 1.6 0.00 0.00 0.00 32 1016.9
20200229033233 21 360 0.0 4.8 0.00 0.00 0.00 34 1016.9
20200229031629 22 360 4.8 14.5 0.00 0.00 0.00 33 1016.7
20200229030145 22 360 6.4 14.5 0.00 0.00 0.00 33 1016.6
20200229024658 23 360 11.3 16.1 0.00 0.00 0.00 31 1016.5
20200229023202 23 269 11.3 17.7 0.00 0.00 0.00 29 1016.4
20200229021616 23 240 4.8 11.3 0.00 0.00 0.00 27 1016.2
20200229020145 24 254 6.4 12.9 0.00 0.00 0.00 21 1016.3
20200229014541 25 360 3.2 11.3 0.00 0.00 0.00 19 1016.1
20200229013040 25 268 6.4 11.3 0.00 0.00 0.00 20 1016.2
20200229011610 25 242 1.6 4.8 0.00 0.00 0.00 19 1016.3
20200229010110 25 242 1.6 4.8 0.00 0.00 0.00 19 1016.2
20200229004617 26 225 3.2 9.7 0.00 0.00 0.00 18 1016.4
20200229003123 26 13 6.4 14.5 0.00 0.00 0.00 17 1016.3
20200229001626 27 13 4.8 12.9 0.00 0.00 0.00 15 1016.5
20200229000125 27 13 4.8 9.7 0.00 0.00 0.00 14 1016.3
20200228234551 28 269 3.2 11.3 0.00 0.00 0.00 12 1016.2
20200228233102 28 259 3.2 14.5 0.00 0.00 0.00 12 1016.0
20200228231542 28 295 9.7 17.7 0.00 0.00 0.00 12 1016.1
20200228230059 28 286 11.3 17.7 0.00 0.00 0.00 12 1016.1
20200228224627 28 301 6.4 16.1 0.00 0.00 0.00 12 1016.5
20200228223115 28 246 8.0 14.5 0.00 0.00 0.00 10 1016.4
20200228221610 28 254 8.0 16.1 0.00 0.00 0.00 11 1016.4
20200228220049 28 269 6.4 16.1 0.00 0.00 0.00 11 1016.5
20200228214529 28 236 3.2 8.0 0.00 0.00 0.00 11 1016.2
20200228213047 29 242 1.6 8.0 0.00 0.00 0.00 10 1016.1
20200228211525 30 38 0.0 6.4 0.00 0.00 0.00 11 1016.1
20200228210026 29 99 0.0 4.8 0.00 0.00 0.00 13 1016.3
20200228204550 28 105 1.6 9.7 0.00 0.00 0.00 13 1016.3
20200228203022 28 329 1.6 4.8 0.00 0.00 0.00 13 1016.5
20200228201533 27 32 1.6 8.0 0.00 0.00 0.00 14 1016.7
20200228200016 27 78 1.6 11.3 0.00 0.00 0.00 14 1016.9
20200228194534 28 124 1.6 9.7 0.00 0.00 0.00 15 1017.3
20200228193012 27 67 4.8 14.5 0.00 0.00 0.00 15 1017.6
20200228191527 26 44 4.8 11.3 0.00 0.00 0.00 16 1017.8
20200228190002 26 36 8.0 14.5 0.00 0.00 0.00 17 1018.1
20200228184709 25 31 6.4 12.9 0.00 0.00 0.00 17 1018.2
20200228183128 25 42 9.7 16.1 0.00 0.00 0.00 17 1018.4
20200228181628 23 360 6.4 12.9 0.00 0.00 0.00 18 1018.7
20200228180213 23 9 8.0 14.5 0.00 0.00 0.00 18 1018.8
20200228174630 23 9 9.7 19.3 0.00 0.00 0.00 17 1018.7
20200228173055 22 9 8.0 20.9 0.00 0.00 0.00 18 1018.8
20200228171700 22 80 9.7 19.3 0.00 0.00 0.00 18 1019.0
20200228170104 22 9 12.9 19.3 0.00 0.00 0.00 17 1018.9
20200228164557 21 5 9.7 17.7 0.00 0.00 0.00 21 1019.0
20200228163119 20 17 11.3 22.5 0.00 0.00 0.00 22 1018.9
20200228161630 20 9 11.3 20.9 0.00 0.00 0.00 22 1019.1
20200228160059 18 360 14.5 25.7 0.00 0.00 0.00 23 1018.7
20200228154558 18 360 16.1 24.1 0.00 0.00 0.00 25 1018.4
20200228153053 17 38 14.5 17.7 0.00 0.00 0.00 27 1018.4
20200228151541 16 28 12.9 17.7 0.00 0.00 0.00 27 1018.1
20200228150017 16 9 12.9 22.5 0.00 0.00 0.00 26 1017.8
20200228144512 16 5 14.5 19.3 0.00 0.00 0.00 28 1017.8
20200228143005 15 17 16.1 22.5 0.00 0.00 0.00 28 1017.7
20200228141511 15 20 9.7 19.3 0.00 0.00 0.00 29 1017.5
20200228140125 15 9 11.3 20.9 0.00 0.00 0.00 28 1017.3
20200228134650 15 42 12.9 19.3 0.00 0.00 0.00 28 1017.1
20200228133155 14 5 11.3 17.7 0.00 0.00 0.00 30 1017.0
20200228131635 13 32 8.0 14.5 0.00 0.00 0.00 33 1017.1
20200228130209 13 10 8.0 17.7 0.00 0.00 0.00 34 1017.0
20200228124609 13 5 9.7 17.7 0.00 0.00 0.00 34 1017.0
20200228123119 13 26 8.0 16.1 0.00 0.00 0.00 35 1016.9
20200228121648 13 41 6.4 12.9 0.00 0.00 0.00 34 1017.0
20200228120050 13 24 8.0 14.5 0.00 0.00 0.00 32 1016.8
20200228114555 13 19 9.7 14.5 0.00 0.00 0.00 32 1016.8
20200228113212 14 9 4.8 12.9 0.00 0.00 0.00 31 1016.6
20200228111642 14 19 6.4 12.9 0.00 0.00 0.00 30 1016.5
20200228110130 15 21 9.7 16.1 0.00 0.00 0.00 29 1016.3
20200228104652 15 38 6.4 14.5 0.00 0.00 0.00 27 1016.2
20200228103245 15 22 9.7 19.3 0.00 0.00 0.00 27 1016.1